createdAt,value
2019-02-04T00:00:35.135Z,93.54
2019-02-04T00:03:13.419Z,93.23
2019-02-04T00:05:45.383Z,93.30
2019-02-04T00:08:17.231Z,92.75
2019-02-04T00:10:49.205Z,92.65
2019-02-04T00:13:21.096Z,92.76
2019-02-04T00:15:53.067Z,92.78
2019-02-04T00:18:24.892Z,92.80
2019-02-04T00:20:57.123Z,92.60
2019-02-04T00:23:28.964Z,92.88
2019-02-04T00:26:00.817Z,92.98
2019-02-04T00:28:32.655Z,93.25
2019-02-04T00:31:05.226Z,93.40
2019-02-04T00:33:37.250Z,93.50
2019-02-04T00:36:09.035Z,93.28
2019-02-04T00:38:40.820Z,93.28
2019-02-04T00:41:12.755Z,93.43
2019-02-04T00:43:46.607Z,93.53
2019-02-04T00:46:18.690Z,93.35
2019-02-04T00:48:50.513Z,93.76
2019-02-04T00:51:22.301Z,93.96
2019-02-04T00:53:54.296Z,93.55
2019-02-04T00:56:26.151Z,93.21
2019-02-04T00:58:57.996Z,93.38
2019-02-04T01:01:29.834Z,93.97
2019-02-04T01:04:02.568Z,93.82
2019-02-04T01:06:34.533Z,94.03
2019-02-04T01:09:10.255Z,94.45
2019-02-04T01:11:42.198Z,94.38
2019-02-04T01:14:14.130Z,94.12
2019-02-04T01:16:45.932Z,93.85
2019-02-04T01:19:17.803Z,94.10
2019-02-04T01:21:49.722Z,94.12
2019-02-04T01:24:21.504Z,94.36
2019-02-04T01:26:53.400Z,94.36
2019-02-04T01:29:25.212Z,94.39
2019-02-04T01:31:57.085Z,93.99
2019-02-04T01:34:28.962Z,93.85
2019-02-04T01:37:00.723Z,93.76
2019-02-04T01:39:32.518Z,94.11
2019-02-04T01:42:04.392Z,94.64
2019-02-04T01:44:36.215Z,94.49
2019-02-04T01:47:14.472Z,93.82
2019-02-04T01:49:41.584Z,93.17
2019-02-04T01:52:13.435Z,93.93
2019-02-04T01:54:45.423Z,93.77
2019-02-04T01:57:17.462Z,93.65
2019-02-04T01:59:49.336Z,93.90
2019-02-04T02:02:21.122Z,93.67
2019-02-04T02:04:56.666Z,93.74
2019-02-04T02:07:28.416Z,94.26
2019-02-04T02:10:00.338Z,94.81
2019-02-04T02:12:35.256Z,94.98
2019-02-04T02:15:08.018Z,95.71
2019-02-04T02:17:39.834Z,95.68
2019-02-04T02:20:15.178Z,95.95
2019-02-04T02:22:47.222Z,96.21
2019-02-04T02:25:19.099Z,96.71
2019-02-04T02:27:50.998Z,96.44
2019-02-04T02:30:30.564Z,96.72
2019-02-04T02:33:02.456Z,97.06
2019-02-04T02:35:34.354Z,97.52
2019-02-04T02:38:07.157Z,97.62
2019-02-04T02:40:38.976Z,97.98
2019-02-04T02:43:11.736Z,98.33
2019-02-04T02:45:43.854Z,98.44
2019-02-04T02:48:15.694Z,98.53
2019-02-04T02:50:47.574Z,99.20
2019-02-04T02:53:19.378Z,99.62
2019-02-04T02:55:51.234Z,99.89
2019-02-04T02:58:23.062Z,99.99
2019-02-04T03:00:54.854Z,100.00
2019-02-04T03:03:26.775Z,100.00
2019-02-04T03:05:58.975Z,100.00
2019-02-04T03:08:30.810Z,100.00
2019-02-04T03:11:02.753Z,100.00
2019-02-04T03:13:34.552Z,100.00
2019-02-04T03:16:06.545Z,100.00
2019-02-04T03:18:38.397Z,100.00
2019-02-04T03:21:10.274Z,100.00
2019-02-04T03:23:42.140Z,100.00
2019-02-04T03:26:13.978Z,100.00
2019-02-04T03:28:45.814Z,100.00
2019-02-04T03:31:17.619Z,100.00
2019-02-04T03:33:49.395Z,100.00
2019-02-04T03:36:21.196Z,100.00
2019-02-04T03:38:52.991Z,100.00
2019-02-04T03:41:24.878Z,100.00
2019-02-04T03:43:57.303Z,100.00
2019-02-04T03:46:29.238Z,100.00
2019-02-04T03:49:01.535Z,100.00
2019-02-04T03:51:33.428Z,100.00
2019-02-04T03:54:22.791Z,100.00
2019-02-04T04:00:18.380Z,100.00
2019-02-04T04:02:50.615Z,100.00
2019-02-04T04:05:23.261Z,100.00
2019-02-04T04:07:55.284Z,100.00
2019-02-04T04:10:27.402Z,100.00
2019-02-04T04:13:00.981Z,100.00
2019-02-04T04:15:33.305Z,100.00
2019-02-04T04:18:16.130Z,100.00
2019-02-04T06:32:34.567Z,97.53
2019-02-04T06:35:07.032Z,97.16
2019-02-04T06:37:39.032Z,97.09
2019-02-04T06:40:13.078Z,97.22
2019-02-04T06:42:45.012Z,96.91
2019-02-04T06:45:17.351Z,97.06
2019-02-04T06:47:49.616Z,97.00
2019-02-04T06:50:21.872Z,97.75
2019-02-04T06:52:56.057Z,98.10
2019-02-04T06:55:31.565Z,98.34
2019-02-04T06:58:05.146Z,98.26
2019-02-04T07:00:38.626Z,98.14
2019-02-04T07:03:10.436Z,97.88
2019-02-04T07:05:43.957Z,97.63
2019-02-04T07:08:19.212Z,97.23
2019-02-04T07:10:51.048Z,96.79
2019-02-04T07:13:23.278Z,96.53
2019-02-04T07:15:55.281Z,95.15
2019-02-04T07:18:28.758Z,94.60
2019-02-04T07:21:00.733Z,94.44
2019-02-04T07:23:32.559Z,95.09
2019-02-04T07:26:04.728Z,94.26
2019-02-04T07:28:36.506Z,93.51
2019-02-04T07:31:08.343Z,92.58
2019-02-04T07:33:40.178Z,91.33
2019-02-04T07:36:11.951Z,91.01
2019-02-04T07:38:44.272Z,91.28
2019-02-04T07:41:16.084Z,91.47
2019-02-04T07:43:47.891Z,91.61
2019-02-04T07:46:19.689Z,91.16
2019-02-04T07:48:52.609Z,90.97
2019-02-04T07:51:24.430Z,91.08
2019-02-04T07:53:57.727Z,91.27
2019-02-04T07:56:29.587Z,91.20
2019-02-04T07:59:01.372Z,90.93
2019-02-04T08:01:33.251Z,90.45
2019-02-04T08:04:05.622Z,90.25
2019-02-04T08:06:37.468Z,90.00
2019-02-04T08:09:11.158Z,89.74
2019-02-04T08:11:42.979Z,89.15
2019-02-04T08:14:15.091Z,87.53
2019-02-04T08:16:46.965Z,87.80
2019-02-04T08:19:18.758Z,88.09
2019-02-04T08:21:50.567Z,87.64
2019-02-04T08:24:22.487Z,87.29
2019-02-04T08:26:57.876Z,87.56
2019-02-04T08:29:29.869Z,88.18
2019-02-04T08:32:01.912Z,87.82
2019-02-04T08:34:33.815Z,86.87
2019-02-04T08:37:05.666Z,86.60
2019-02-04T08:39:37.513Z,85.67
2019-02-04T08:42:09.331Z,85.10
2019-02-04T08:44:41.456Z,85.45
2019-02-04T08:47:22.604Z,85.99
2019-02-04T08:49:57.750Z,85.40
2019-02-04T08:52:20.771Z,84.05
2019-02-04T08:54:54.984Z,82.90
2019-02-04T08:57:26.851Z,83.36
2019-02-04T09:00:00.450Z,84.20
2019-02-04T09:02:34.299Z,84.36
2019-02-04T09:05:08.215Z,84.39
2019-02-04T09:07:43.322Z,83.07
2019-02-04T09:10:31.572Z,82.31
2019-02-04T09:13:04.082Z,82.31
2019-02-04T09:15:36.477Z,82.58
2019-02-04T09:18:08.281Z,82.32
2019-02-04T09:20:40.054Z,82.18
2019-02-04T09:23:11.959Z,82.29
2019-02-04T09:25:43.763Z,81.61
2019-02-04T09:28:15.564Z,80.64
2019-02-04T09:30:47.345Z,80.46
2019-02-04T09:33:19.283Z,80.14
2019-02-04T09:35:51.245Z,81.55
2019-02-04T09:38:26.754Z,80.92
2019-02-04T09:40:58.862Z,81.49
2019-02-04T09:43:30.925Z,80.83
2019-02-04T09:46:04.678Z,80.19
2019-02-04T09:48:36.986Z,79.64
2019-02-04T09:51:08.874Z,78.74
2019-02-04T09:53:40.757Z,79.20
2019-02-04T09:56:12.734Z,81.13
2019-02-04T09:58:46.601Z,81.74
2019-02-04T10:01:21.792Z,81.71
2019-02-04T10:03:53.809Z,80.17
2019-02-04T10:06:25.734Z,78.43
2019-02-04T10:09:00.408Z,77.24
2019-02-04T10:11:34.454Z,75.65
2019-02-04T10:14:06.574Z,73.06
2019-02-04T10:16:38.456Z,75.21
2019-02-04T10:19:12.521Z,76.34
2019-02-04T10:21:44.349Z,77.25
2019-02-04T10:24:16.123Z,77.00
2019-02-04T10:26:48.078Z,78.17
2019-02-04T10:29:20.032Z,78.23
2019-02-04T10:31:51.862Z,77.07
2019-02-04T10:34:24.241Z,76.24
2019-02-04T10:36:56.105Z,75.37
2019-02-04T10:39:29.343Z,75.18
2019-02-04T10:42:02.530Z,74.98
2019-02-04T10:44:41.238Z,75.18
2019-02-04T10:47:15.393Z,75.70
2019-02-04T10:49:47.305Z,75.64
2019-02-04T10:52:19.273Z,76.37
2019-02-04T10:54:52.606Z,77.05
2019-02-04T10:57:25.547Z,77.30
2019-02-04T10:59:57.539Z,77.82
2019-02-04T11:02:29.708Z,78.52
2019-02-04T11:05:01.666Z,79.29
2019-02-04T11:07:33.885Z,80.10
2019-02-04T11:10:08.666Z,81.38
2019-02-04T11:12:40.617Z,81.01
2019-02-04T11:15:14.681Z,81.26
2019-02-04T11:19:09.035Z,80.25
2019-02-04T11:21:44.954Z,78.39
2019-02-04T11:24:27.826Z,77.03
2019-02-04T11:27:00.206Z,76.49
2019-02-04T11:29:35.424Z,75.57
2019-02-04T11:32:25.121Z,74.21
2019-02-04T11:34:57.288Z,74.37
2019-02-04T11:37:30.843Z,75.55
2019-02-04T11:40:02.919Z,76.06
2019-02-04T11:42:36.606Z,77.50
2019-02-04T11:45:14.396Z,79.25
2019-02-04T11:47:47.244Z,80.56
2019-02-04T11:50:22.918Z,80.79
2019-02-04T11:52:56.382Z,80.51
2019-02-04T11:55:31.789Z,80.72
2019-02-04T11:58:08.064Z,80.54
2019-02-04T12:00:41.881Z,80.95
2019-02-04T12:03:17.868Z,82.14
2019-02-04T12:05:54.719Z,82.16
2019-02-04T12:08:32.265Z,83.04
2019-02-04T12:11:21.528Z,83.78
2019-02-04T12:14:02.295Z,83.98
2019-02-04T12:16:35.983Z,84.15
2019-02-04T12:19:52.765Z,84.07
2019-02-04T12:22:49.929Z,83.83
2019-02-04T12:25:24.981Z,83.83
2019-02-04T12:27:58.097Z,83.54
2019-02-04T12:30:35.703Z,83.45
2019-02-04T12:33:22.431Z,83.69
2019-02-04T12:35:58.627Z,84.24
2019-02-04T12:38:31.217Z,84.18
2019-02-04T12:41:03.557Z,83.98
2019-02-04T12:43:35.728Z,84.08
2019-02-04T12:46:08.233Z,84.10
2019-02-04T12:48:40.519Z,84.18
2019-02-04T12:51:12.530Z,84.09
2019-02-04T12:53:44.383Z,84.41
2019-02-04T12:56:16.195Z,84.75
2019-02-04T12:58:55.258Z,84.60
2019-02-04T13:01:21.461Z,84.69
2019-02-04T13:03:53.366Z,84.61
2019-02-04T13:06:25.267Z,84.61
2019-02-04T13:08:57.155Z,84.86
2019-02-04T13:11:28.964Z,84.70
2019-02-04T13:14:00.871Z,84.73
2019-02-04T13:16:32.733Z,84.77
2019-02-04T13:19:04.725Z,84.95
2019-02-04T13:21:44.979Z,85.23
2019-02-04T13:24:10.572Z,85.17
2019-02-04T13:26:44.857Z,85.46
2019-02-04T13:29:16.933Z,85.42
2019-02-04T13:31:49.009Z,85.89
2019-02-04T13:34:21.140Z,86.01
2019-02-04T13:36:53.506Z,85.98
2019-02-04T13:39:27.061Z,86.13
2019-02-04T13:42:00.819Z,86.04
2019-02-04T13:44:33.919Z,86.21
2019-02-04T13:47:08.232Z,86.29
2019-02-04T13:49:48.808Z,86.40
2019-02-04T13:52:22.780Z,86.59
2019-02-04T13:54:54.728Z,86.65
2019-02-04T13:57:29.404Z,86.65
2019-02-04T14:00:09.052Z,86.87
2019-02-04T14:02:42.808Z,86.84
2019-02-04T14:05:15.362Z,86.93
2019-02-04T14:07:59.680Z,87.30
2019-02-04T14:10:40.211Z,87.82
2019-02-04T14:13:14.642Z,87.94
2019-02-04T14:15:47.412Z,88.43
2019-02-04T14:18:26.295Z,88.54
2019-02-04T14:20:56.961Z,88.96
2019-02-04T14:23:30.155Z,88.88
2019-02-04T14:26:02.636Z,89.09
2019-02-04T14:28:36.499Z,88.73
2019-02-04T14:31:11.119Z,88.58
2019-02-04T14:33:46.208Z,88.77
2019-02-04T14:36:20.778Z,88.60
2019-02-04T14:38:54.881Z,89.36
2019-02-04T14:41:30.328Z,89.51
2019-02-04T14:44:29.405Z,89.72
2019-02-04T14:47:39.126Z,89.97
2019-02-04T14:51:03.623Z,89.60
2019-02-04T14:54:40.233Z,89.52
2019-02-04T14:57:40.953Z,89.73
2019-02-04T15:01:07.388Z,90.29
2019-02-04T15:04:18.949Z,90.62
2019-02-04T15:07:55.223Z,90.99
2019-02-04T15:11:16.734Z,90.98
2019-02-04T15:14:55.166Z,90.76
2019-02-04T15:18:12.490Z,91.29
2019-02-04T15:21:28.898Z,91.99
2019-02-04T15:24:45.734Z,93.13
2019-02-04T15:28:02.367Z,93.48
2019-02-04T15:31:12.517Z,93.27
2019-02-04T15:34:27.672Z,93.23
2019-02-04T15:38:16.551Z,93.00
2019-02-04T15:41:19.970Z,92.74
2019-02-04T15:44:36.954Z,94.14
2019-02-04T15:48:02.832Z,94.17
2019-02-04T15:51:32.660Z,94.82
2019-02-04T15:54:10.708Z,95.46
2019-02-04T15:56:42.641Z,94.81
2019-02-04T15:59:17.414Z,94.83
2019-02-04T16:02:04.964Z,95.48
2019-02-04T16:04:40.851Z,95.71
2019-02-04T16:07:17.677Z,96.55
2019-02-04T16:09:57.958Z,97.61
2019-02-04T16:12:38.475Z,96.88
2019-02-04T16:15:20.349Z,96.96
2019-02-04T16:17:55.197Z,96.47
2019-02-04T16:20:27.275Z,97.35
2019-02-04T16:22:59.607Z,97.20
2019-02-04T16:25:42.251Z,97.02
2019-02-04T16:28:25.949Z,97.40
2019-02-04T16:30:58.795Z,98.72
2019-02-04T16:33:31.707Z,98.39
2019-02-04T16:36:04.041Z,98.19
2019-02-04T16:38:39.595Z,97.95
2019-02-04T16:41:11.709Z,98.01
2019-02-04T16:43:46.595Z,98.05
2019-02-04T16:46:18.759Z,98.24
2019-02-04T16:48:55.374Z,98.53
2019-02-04T16:51:28.417Z,98.65
2019-02-04T16:54:01.879Z,98.55
2019-02-04T16:56:35.795Z,98.65
2019-02-04T16:59:07.767Z,98.81
2019-02-04T17:01:39.925Z,99.07
2019-02-04T17:04:13.992Z,99.38
2019-02-04T17:06:46.659Z,99.63
2019-02-04T17:09:22.779Z,99.72
2019-02-04T17:11:56.816Z,99.94
2019-02-04T17:14:30.575Z,100.00
2019-02-04T17:17:04.080Z,100.00
2019-02-04T17:19:36.331Z,100.00
2019-02-04T17:22:08.359Z,100.00
2019-02-04T17:24:40.473Z,100.00
2019-02-04T17:27:12.551Z,100.00
2019-02-04T17:29:44.564Z,100.00
2019-02-04T17:32:17.844Z,100.00
2019-02-04T17:34:51.201Z,100.00
2019-02-04T17:37:23.131Z,100.00
2019-02-04T17:39:55.021Z,100.00
2019-02-04T17:42:27.017Z,100.00
2019-02-04T17:45:00.593Z,100.00
2019-02-04T17:47:32.845Z,100.00
2019-02-04T17:50:08.397Z,100.00
2019-02-04T17:52:40.411Z,100.00
2019-02-04T17:55:17.329Z,100.00
2019-02-04T17:57:49.381Z,100.00
2019-02-04T18:00:44.719Z,100.00
2019-02-04T18:03:17.051Z,100.00
2019-02-04T18:05:48.880Z,100.00
2019-02-04T18:08:20.853Z,100.00
2019-02-04T18:10:52.853Z,100.00
2019-02-04T18:13:24.845Z,100.00
2019-02-04T18:15:56.681Z,100.00
2019-02-04T18:18:34.482Z,100.00
2019-02-04T18:21:08.050Z,100.00
2019-02-04T18:23:45.990Z,100.00
2019-02-04T18:26:16.473Z,100.00
2019-02-04T18:28:48.743Z,100.00
2019-02-04T18:31:22.185Z,100.00
2019-02-04T18:33:56.706Z,100.00
2019-02-04T18:36:33.463Z,100.00
2019-02-04T18:39:11.820Z,100.00
2019-02-04T18:41:44.958Z,100.00
2019-02-04T18:44:20.021Z,100.00
2019-02-04T18:46:53.266Z,100.00
2019-02-04T18:49:30.375Z,100.00
2019-02-04T18:52:05.489Z,100.00
2019-02-04T18:54:37.903Z,100.00
2019-02-04T18:57:09.954Z,100.00
2019-02-04T18:59:42.186Z,100.00
2019-02-04T19:02:17.080Z,100.00
2019-02-04T19:04:49.214Z,100.00
2019-02-04T19:07:21.203Z,100.00
2019-02-04T19:09:56.110Z,100.00
2019-02-04T19:12:27.944Z,100.00
2019-02-04T19:15:03.279Z,100.00
2019-02-04T19:17:35.826Z,100.00
2019-02-04T19:20:11.268Z,100.00
2019-02-04T19:22:44.735Z,100.00
2019-02-04T19:25:19.030Z,100.00
2019-02-04T19:27:51.586Z,100.00
2019-02-04T19:30:46.507Z,100.00
2019-02-04T19:33:21.391Z,100.00
2019-02-04T19:35:53.548Z,100.00
2019-02-04T19:38:25.456Z,100.00
2019-02-04T19:40:58.032Z,100.00
2019-02-04T19:43:33.459Z,100.00
2019-02-04T19:46:06.268Z,99.64
2019-02-04T19:48:38.127Z,99.54
2019-02-04T19:51:12.034Z,99.32
2019-02-04T19:53:43.951Z,99.19
2019-02-04T19:56:15.774Z,98.90
2019-02-04T19:58:48.161Z,98.34
2019-02-04T20:01:20.547Z,98.12
2019-02-04T20:03:52.474Z,97.86
2019-02-04T20:06:24.488Z,97.15
2019-02-04T20:08:56.313Z,96.56
2019-02-04T20:11:28.282Z,96.53
2019-02-04T20:14:00.189Z,96.29
2019-02-04T20:16:41.776Z,95.40
2019-02-04T20:19:16.830Z,95.66
2019-02-04T20:21:49.070Z,95.21
2019-02-04T20:24:32.637Z,95.20
2019-02-04T20:26:55.133Z,94.58
2019-02-04T20:29:27.291Z,94.40
2019-02-04T20:31:59.434Z,93.70
2019-02-04T20:34:31.420Z,93.93
2019-02-04T20:37:03.445Z,93.40
2019-02-04T20:39:35.719Z,93.45
2019-02-04T20:42:07.761Z,94.05
2019-02-04T20:44:39.768Z,94.39
2019-02-04T20:47:12.169Z,93.84
2019-02-04T20:49:44.324Z,93.33
2019-02-04T20:52:16.994Z,92.79
2019-02-04T20:54:48.857Z,92.48
2019-02-04T20:57:20.839Z,92.43
2019-02-04T20:59:55.331Z,92.54
2019-02-04T21:02:28.277Z,92.41
2019-02-04T21:05:01.518Z,91.98
2019-02-04T21:07:34.700Z,91.47
2019-02-04T21:10:11.025Z,91.42
2019-02-04T21:12:43.111Z,90.80
2019-02-04T21:15:21.666Z,90.38
2019-02-04T21:17:53.690Z,89.94
2019-02-04T21:20:27.107Z,90.33
2019-02-04T21:22:59.005Z,90.36
2019-02-04T21:25:31.018Z,90.15
2019-02-04T21:28:02.915Z,90.22
2019-02-04T21:30:38.730Z,90.30
2019-02-04T21:33:10.777Z,90.46
2019-02-04T21:35:44.069Z,91.13
2019-02-04T21:38:16.589Z,91.32
2019-02-04T21:40:48.839Z,91.65
2019-02-04T21:43:28.379Z,91.51
2019-02-04T21:46:00.405Z,91.25
2019-02-04T21:48:33.835Z,90.53
2019-02-04T21:51:06.111Z,90.25
2019-02-04T21:53:38.412Z,90.15
2019-02-04T21:56:10.373Z,90.18
2019-02-04T21:58:44.072Z,90.22
2019-02-04T22:01:16.573Z,89.81
2019-02-04T22:03:48.649Z,89.71
2019-02-04T22:06:20.653Z,89.48
2019-02-04T22:08:52.628Z,89.40
2019-02-04T22:11:24.873Z,89.39
2019-02-04T22:13:57.085Z,89.60
2019-02-04T22:16:29.221Z,89.21
2019-02-04T22:19:01.801Z,88.82
2019-02-04T22:21:33.993Z,88.97
2019-02-04T22:24:07.314Z,88.87
2019-02-04T22:30:34.390Z,89.20
2019-02-04T22:33:25.866Z,89.68
2019-02-04T22:40:38.116Z,89.63
2019-02-04T22:43:10.460Z,89.59
2019-02-04T22:45:45.815Z,89.40
2019-02-04T22:48:18.186Z,89.37
2019-02-04T22:50:50.472Z,89.39
2019-02-04T22:56:43.126Z,89.02
2019-02-04T22:59:15.068Z,88.80
2019-02-04T23:01:54.409Z,88.58
2019-02-04T23:04:28.425Z,88.56
2019-02-04T23:07:00.455Z,88.81
2019-02-04T23:09:32.424Z,88.71
2019-02-04T23:12:05.100Z,88.78
2019-02-04T23:14:37.019Z,88.56
2019-02-04T23:17:09.232Z,88.49
2019-02-04T23:19:41.167Z,88.66
2019-02-04T23:22:13.213Z,88.81
2019-02-04T23:24:45.262Z,88.74
2019-02-04T23:27:17.249Z,88.31
2019-02-04T23:29:50.112Z,87.98
2019-02-04T23:32:22.192Z,87.79
2019-02-04T23:34:54.215Z,87.97
2019-02-04T23:37:26.292Z,88.14
2019-02-04T23:39:59.673Z,87.90
2019-02-04T23:42:32.037Z,87.76
2019-02-04T23:45:08.132Z,87.70
2019-02-04T23:47:40.220Z,87.22
2019-02-04T23:50:14.436Z,87.01
2019-02-04T23:52:46.593Z,87.04
2019-02-04T23:55:18.590Z,86.76
2019-02-04T23:57:50.528Z,87.31
